CG Skipjack — NHOY — position and weather

sailwx.info

Track history (hours):
 
Tides and Currents Weather Stations Pressure Air Temp Water Temp Dewpoint Dewpoint Depression Visibility Wind Speed Wind Dir Waves Ship Positions

CG Skipjack

Last reported at 2018-Feb-22 16:22 UTC. Time now 2018-Feb-25 12:08 UTC.
Position N 29°52' W 092°08'.

Length 26 m; draft 1.7 m.

Type: SAR. MMSI: 366999611.

Date/timePositionNaut miles runAvg speedWind from/ knotsBaromVisibWave heightAir tempDewpointWater temp
2018-Feb-22 16:22N 29°52' W 092°08'3 7.0
2018-Feb-22 15:56N 29°49' W 092°08'1 1.4
2018-Feb-22 15:30N 29°48' W 092°08'2 3.8
2018-Feb-22 14:58N 29°50' W 092°08'  
2018-Feb-19 16:35N 29°53' W 092°08'1 6.0
2018-Feb-19 16:28N 29°53' W 092°08'3 7.3
2018-Feb-19 16:00N 29°49' W 092°08'2 3.2
2018-Feb-19 15:30N 29°48' W 092°09'2 3.4
2018-Feb-19 15:00N 29°47' W 092°10'816.6
2018-Feb-19 14:30N 29°40' W 092°15'  
2018-Feb-15 20:05N 29°38' W 092°16'1 9.3
2018-Feb-15 20:00N 29°38' W 092°16'4 8.4
2018-Feb-15 19:31N 29°42' W 092°15'3 6.6
2018-Feb-15 19:00N 29°45' W 092°13'4 7.5
2018-Feb-15 18:30N 29°47' W 092°09'1 1.6
2018-Feb-15 18:00N 29°48' W 092°08'4 7.1
2018-Feb-15 17:31N 29°51' W 092°08'  
Track history (hours):
 
Tides and Currents Weather Stations Pressure Air Temp Water Temp Dewpoint Dewpoint Depression Visibility Wind Speed Wind Dir Waves Ship Positions

CG Skipjack

Last reported at 2018-Feb-22 16:22 UTC. Time now 2018-Feb-25 12:08 UTC.
Position N 29°52' W 092°08'.

Length 26 m; draft 1.7 m.

Type: SAR. MMSI: 366999611.

Date/timePositionNaut miles runAvg speedWind from/ knotsBaromVisibWave heightAir tempDewpointWater temp
2018-Feb-22 16:22N 29°52' W 092°08'3 7.0
2018-Feb-22 15:56N 29°49' W 092°08'1 1.4
2018-Feb-22 15:30N 29°48' W 092°08'2 3.8
2018-Feb-22 14:58N 29°50' W 092°08'  
2018-Feb-19 16:35N 29°53' W 092°08'1 6.0
2018-Feb-19 16:28N 29°53' W 092°08'3 7.3
2018-Feb-19 16:00N 29°49' W 092°08'2 3.2
2018-Feb-19 15:30N 29°48' W 092°09'2 3.4
2018-Feb-19 15:00N 29°47' W 092°10'816.6
2018-Feb-19 14:30N 29°40' W 092°15'  
2018-Feb-15 20:05N 29°38' W 092°16'1 9.3
2018-Feb-15 20:00N 29°38' W 092°16'4 8.4
2018-Feb-15 19:31N 29°42' W 092°15'3 6.6
2018-Feb-15 19:00N 29°45' W 092°13'4 7.5
2018-Feb-15 18:30N 29°47' W 092°09'1 1.6
2018-Feb-15 18:00N 29°48' W 092°08'4 7.1
2018-Feb-15 17:31N 29°51' W 092°08'  

Dump ship's entire track history